Time,TemperatureF,DewpointF,PressureIn,WindDirection,WindDirectionDegrees,WindSpeedMPH,WindSpeedGustMPH,Humidity,HourlyPrecipIn,Conditions,Clouds,dailyrainin,SolarRadiationWatts/m^2,SoftwareType,DateUTC
2013-03-07 00:21:00,32.0,10.0,-100.00,SW,230,8.0,18.0,40,0.00,,,0.00,0.000000,,2013-03-07 07:21:00,
2013-03-07 00:32:00,32.0,10.0,-100.00,SW,230,8.0,18.0,40,0.00,,,0.00,0.000000,,2013-03-07 07:32:00,
2013-03-07 00:42:00,32.0,10.0,-100.00,SW,230,8.0,18.0,40,0.00,,,0.00,0.000000,,2013-03-07 07:42:00,
2013-03-07 00:52:00,30.0,11.0,-100.00,SW,228,6.0,12.0,44,0.00,,,0.00,0.000000,,2013-03-07 07:52:00,
2013-03-07 01:23:00,30.0,11.0,-100.00,SW,228,6.0,12.0,44,0.00,,,0.00,0.000000,,2013-03-07 08:23:00,
2013-03-07 01:33:00,30.0,11.0,-100.00,SW,228,6.0,12.0,44,0.00,,,0.00,0.000000,,2013-03-07 08:33:00,
2013-03-07 01:44:00,30.0,11.0,-100.00,SW,228,6.0,12.0,44,0.00,,,0.00,0.000000,,2013-03-07 08:44:00,
2013-03-07 01:52:00,30.0,10.0,-100.00,SW,219,8.0,16.0,43,0.00,,,0.00,0.000000,,2013-03-07 08:52:00,
2013-03-07 02:13:00,30.0,10.0,-100.00,SW,219,8.0,16.0,43,0.00,,,0.00,0.000000,,2013-03-07 09:13:00,
2013-03-07 02:23:00,30.0,10.0,-100.00,SW,219,8.0,16.0,43,0.00,,,0.00,0.000000,,2013-03-07 09:23:00,
2013-03-07 02:33:00,30.0,10.0,-100.00,SW,219,8.0,16.0,43,0.00,,,0.00,0.000000,,2013-03-07 09:33:00,
2013-03-07 02:42:00,30.0,10.0,-100.00,SW,219,8.0,16.0,43,0.00,,,0.00,0.000000,,2013-03-07 09:42:00,
2013-03-07 02:52:00,31.0,11.0,-100.00,SSW,213,9.0,16.0,42,0.00,,,0.00,0.000000,,2013-03-07 09:52:00,
2013-03-07 03:13:00,31.0,11.0,-100.00,SSW,213,9.0,16.0,42,0.00,,,0.00,0.000000,,2013-03-07 10:13:00,
2013-03-07 03:23:00,31.0,11.0,-100.00,SSW,213,9.0,16.0,42,0.00,,,0.00,0.000000,,2013-03-07 10:23:00,
2013-03-07 03:33:00,31.0,11.0,-100.00,SSW,213,9.0,16.0,42,0.00,,,0.00,0.000000,,2013-03-07 10:33:00,
2013-03-07 03:42:00,31.0,11.0,-100.00,SSW,213,9.0,16.0,42,0.00,,,0.00,0.000000,,2013-03-07 10:42:00,
2013-03-07 03:52:00,31.0,11.0,-100.00,SW,217,8.0,16.0,42,0.00,,,0.00,0.000000,,2013-03-07 10:52:00,
2013-03-07 04:12:00,31.0,11.0,-100.00,SW,217,8.0,16.0,42,0.00,,,0.00,0.000000,,2013-03-07 11:12:00,
2013-03-07 04:23:00,31.0,11.0,-100.00,SW,217,8.0,16.0,42,0.00,,,0.00,0.000000,,2013-03-07 11:23:00,
2013-03-07 04:33:00,31.0,11.0,-100.00,SW,217,8.0,16.0,42,0.00,,,0.00,0.000000,,2013-03-07 11:33:00,
2013-03-07 04:43:00,31.0,11.0,-100.00,SW,217,8.0,16.0,42,0.00,,,0.00,0.000000,,2013-03-07 11:43:00,
2013-03-07 04:52:00,31.0,11.0,-100.00,SW,228,6.0,13.0,43,0.00,,,0.00,0.000000,,2013-03-07 11:52:00,
2013-03-07 05:23:00,31.0,11.0,-100.00,SW,228,6.0,13.0,43,0.00,,,0.00,0.000000,,2013-03-07 12:23:00,
2013-03-07 05:33:00,31.0,11.0,-100.00,SW,228,6.0,13.0,43,0.00,,,0.00,0.000000,,2013-03-07 12:33:00,
2013-03-07 05:42:00,31.0,11.0,-100.00,SW,228,6.0,13.0,43,0.00,,,0.00,0.000000,,2013-03-07 12:42:00,
2013-03-07 05:52:00,30.0,11.0,-100.00,SW,233,7.0,13.0,44,0.00,,,0.00,0.000000,,2013-03-07 12:52:00,
2013-03-07 06:22:00,30.0,11.0,-100.00,SW,233,7.0,13.0,44,0.00,,,0.00,0.000000,,2013-03-07 13:22:00,
2013-03-07 06:32:00,30.0,11.0,-100.00,SW,233,7.0,13.0,44,0.00,,,0.00,0.000000,,2013-03-07 13:32:00,
2013-03-07 06:42:00,30.0,11.0,-100.00,SW,233,7.0,13.0,44,0.00,,,0.00,0.000000,,2013-03-07 13:42:00,
2013-03-07 06:52:00,32.0,13.0,-100.00,SW,232,8.0,15.0,44,0.00,,,0.00,4.000000,,2013-03-07 13:52:00,
2013-03-07 07:12:00,32.0,13.0,-100.00,SW,232,8.0,15.0,44,0.00,,,0.00,4.000000,,2013-03-07 14:12:00,
2013-03-07 07:23:00,32.0,13.0,-100.00,SW,232,8.0,15.0,44,0.00,,,0.00,4.000000,,2013-03-07 14:23:00,
2013-03-07 07:33:00,32.0,13.0,-100.00,SW,232,8.0,15.0,44,0.00,,,0.00,4.000000,,2013-03-07 14:33:00,
2013-03-07 07:42:00,32.0,13.0,-100.00,SW,232,8.0,15.0,44,0.00,,,0.00,4.000000,,2013-03-07 14:42:00,
2013-03-07 07:52:00,36.0,14.0,-100.00,WSW,238,13.0,26.0,40,0.00,,,0.00,106.000000,,2013-03-07 14:52:00,
2013-03-07 08:12:00,36.0,14.0,-100.00,WSW,238,13.0,26.0,40,0.00,,,0.00,106.000000,,2013-03-07 15:12:00,
2013-03-07 08:23:00,36.0,14.0,-100.00,WSW,238,13.0,26.0,40,0.00,,,0.00,106.000000,,2013-03-07 15:23:00,
2013-03-07 08:32:00,36.0,14.0,-100.00,WSW,238,13.0,26.0,40,0.00,,,0.00,106.000000,,2013-03-07 15:32:00,
2013-03-07 08:42:00,36.0,14.0,-100.00,WSW,238,13.0,26.0,40,0.00,,,0.00,106.000000,,2013-03-07 15:42:00,
2013-03-07 08:52:00,39.0,14.0,-100.00,SW,235,11.0,25.0,36,0.00,,,0.00,328.000000,,2013-03-07 15:52:00,
2013-03-07 09:23:00,39.0,14.0,-100.00,SW,235,11.0,25.0,36,0.00,,,0.00,328.000000,,2013-03-07 16:23:00,
2013-03-07 09:32:00,39.0,14.0,-100.00,SW,235,11.0,25.0,36,0.00,,,0.00,328.000000,,2013-03-07 16:32:00,
2013-03-07 09:43:00,39.0,14.0,-100.00,SW,235,11.0,25.0,36,0.00,,,0.00,328.000000,,2013-03-07 16:43:00,
2013-03-07 09:52:00,43.0,14.0,-100.00,SSW,210,11.0,22.0,31,0.00,,,-99.99,484.000000,,2013-03-07 16:52:00,
2013-03-07 10:12:00,43.0,14.0,-100.00,SSW,210,11.0,22.0,31,0.00,,,-99.99,484.000000,,2013-03-07 17:12:00,
2013-03-07 10:33:00,43.0,14.0,-100.00,SSW,210,11.0,22.0,31,0.00,,,-99.99,484.000000,,2013-03-07 17:33:00,
2013-03-07 10:43:00,43.0,14.0,-100.00,SSW,210,11.0,22.0,31,0.00,,,-99.99,484.000000,,2013-03-07 17:43:00,
2013-03-07 10:52:00,47.0,14.0,-100.00,SW,216,8.0,19.0,26,0.00,,,0.00,727.000000,,2013-03-07 17:52:00,
2013-03-07 11:12:00,47.0,14.0,-100.00,SW,216,8.0,19.0,26,0.00,,,0.00,727.000000,,2013-03-07 18:12:00,
2013-03-07 11:22:00,47.0,14.0,-100.00,SW,216,8.0,19.0,26,0.00,,,0.00,727.000000,,2013-03-07 18:22:00,
2013-03-07 11:32:00,47.0,14.0,-100.00,SW,216,8.0,19.0,26,0.00,,,0.00,727.000000,,2013-03-07 18:32:00,
2013-03-07 11:42:00,47.0,14.0,-100.00,SW,216,8.0,19.0,26,0.00,,,0.00,727.000000,,2013-03-07 18:42:00,
2013-03-07 11:52:00,46.0,11.0,-100.00,WSW,237,12.0,22.0,24,0.00,,,0.00,888.000000,,2013-03-07 18:52:00,
2013-03-07 12:12:00,46.0,11.0,-100.00,WSW,237,12.0,22.0,24,0.00,,,0.00,888.000000,,2013-03-07 19:12:00,
2013-03-07 12:23:00,46.0,11.0,-100.00,WSW,237,12.0,22.0,24,0.00,,,0.00,888.000000,,2013-03-07 19:23:00,
2013-03-07 12:35:00,46.0,11.0,-100.00,WSW,237,12.0,22.0,24,0.00,,,0.00,888.000000,,2013-03-07 19:35:00,
2013-03-07 12:43:00,46.0,11.0,-100.00,WSW,237,12.0,22.0,24,0.00,,,0.00,888.000000,,2013-03-07 19:43:00,
2013-03-07 12:52:00,47.0,11.0,-100.00,SSW,192,11.0,27.0,23,0.00,,,0.00,906.000000,,2013-03-07 19:52:00,
2013-03-07 13:13:00,47.0,11.0,-100.00,SSW,192,11.0,27.0,23,0.00,,,0.00,906.000000,,2013-03-07 20:13:00,
2013-03-07 13:22:00,47.0,11.0,-100.00,SSW,192,11.0,27.0,23,0.00,,,0.00,906.000000,,2013-03-07 20:22:00,
2013-03-07 13:33:00,47.0,11.0,-100.00,SSW,192,11.0,27.0,23,0.00,,,0.00,906.000000,,2013-03-07 20:33:00,
2013-03-07 13:42:00,47.0,11.0,-100.00,SSW,192,11.0,27.0,23,0.00,,,0.00,906.000000,,2013-03-07 20:42:00,
2013-03-07 13:52:00,46.0,11.0,-100.00,SSW,205,10.0,22.0,24,0.00,,,0.00,808.000000,,2013-03-07 20:52:00,
2013-03-07 14:12:00,46.0,11.0,-100.00,SSW,205,10.0,22.0,24,0.00,,,0.00,808.000000,,2013-03-07 21:12:00,
2013-03-07 14:22:00,46.0,11.0,-100.00,SSW,205,10.0,22.0,24,0.00,,,0.00,808.000000,,2013-03-07 21:22:00,
2013-03-07 14:32:00,46.0,11.0,-100.00,SSW,205,10.0,22.0,24,0.00,,,0.00,808.000000,,2013-03-07 21:32:00,
2013-03-07 14:42:00,46.0,11.0,-100.00,SSW,205,10.0,22.0,24,0.00,,,0.00,808.000000,,2013-03-07 21:42:00,
2013-03-07 14:52:00,48.0,11.0,-100.00,SSW,197,10.0,17.0,22,0.00,,,0.00,730.000000,,2013-03-07 21:52:00,
2013-03-07 15:22:00,48.0,11.0,-100.00,SSW,197,10.0,17.0,22,0.00,,,0.00,730.000000,,2013-03-07 22:22:00,
2013-03-07 15:32:00,48.0,11.0,-100.00,SSW,197,10.0,17.0,22,0.00,,,0.00,730.000000,,2013-03-07 22:32:00,
2013-03-07 15:42:00,48.0,11.0,-100.00,SSW,197,10.0,17.0,22,0.00,,,0.00,730.000000,,2013-03-07 22:42:00,
2013-03-07 15:52:00,48.0,10.0,-100.00,SSW,203,8.0,18.0,21,0.00,,,0.00,551.000000,,2013-03-07 22:52:00,
2013-03-07 16:22:00,48.0,10.0,-100.00,SSW,203,8.0,18.0,21,0.00,,,0.00,551.000000,,2013-03-07 23:22:00,
2013-03-07 16:33:00,48.0,10.0,-100.00,SSW,203,8.0,18.0,21,0.00,,,0.00,551.000000,,2013-03-07 23:33:00,
2013-03-07 16:43:00,48.0,10.0,-100.00,SSW,203,8.0,18.0,21,0.00,,,0.00,551.000000,,2013-03-07 23:43:00,
2013-03-07 16:52:00,44.0,10.0,-100.00,SSW,198,5.0,15.0,24,0.00,,,0.00,290.000000,,2013-03-07 23:52:00,
2013-03-07 17:13:00,44.0,10.0,-100.00,SSW,198,5.0,15.0,24,0.00,,,0.00,290.000000,,2013-03-08 00:13:00,
2013-03-07 17:23:00,44.0,10.0,-100.00,SSW,198,5.0,15.0,24,0.00,,,0.00,290.000000,,2013-03-08 00:23:00,
2013-03-07 17:34:00,44.0,10.0,-100.00,SSW,198,5.0,15.0,24,0.00,,,0.00,290.000000,,2013-03-08 00:34:00,
2013-03-07 17:43:00,44.0,10.0,-100.00,SSW,198,5.0,15.0,24,0.00,,,0.00,290.000000,,2013-03-08 00:43:00,
2013-03-07 17:52:00,40.0,8.0,-100.00,SSW,192,3.0,10.0,26,0.00,,,0.00,50.000000,,2013-03-08 00:52:00,
2013-03-07 18:21:00,40.0,8.0,-100.00,SSW,192,3.0,10.0,26,0.00,,,0.00,50.000000,,2013-03-08 01:21:00,
2013-03-07 18:33:00,40.0,8.0,-100.00,SSW,192,3.0,10.0,26,0.00,,,0.00,50.000000,,2013-03-08 01:33:00,
2013-03-07 18:42:00,40.0,8.0,-100.00,SSW,192,3.0,10.0,26,0.00,,,0.00,50.000000,,2013-03-08 01:42:00,
2013-03-07 18:52:00,25.0,12.0,-100.00,ESE,110,1.0,3.0,56,0.00,,,0.00,2.000000,,2013-03-08 01:52:00,
2013-03-07 19:11:00,25.0,12.0,-100.00,ESE,110,1.0,3.0,56,0.00,,,0.00,2.000000,,2013-03-08 02:11:00,
2013-03-07 19:22:00,25.0,12.0,-100.00,ESE,110,1.0,3.0,56,0.00,,,0.00,2.000000,,2013-03-08 02:22:00,
2013-03-07 19:32:00,25.0,12.0,-100.00,ESE,110,1.0,3.0,56,0.00,,,0.00,2.000000,,2013-03-08 02:32:00,
2013-03-07 19:42:00,25.0,12.0,-100.00,ESE,110,1.0,3.0,56,0.00,,,0.00,2.000000,,2013-03-08 02:42:00,
2013-03-07 19:52:00,21.0,11.0,-100.00,NNW,330,0.0,2.0,65,0.00,,,0.00,0.000000,,2013-03-08 02:52:00,
2013-03-07 20:12:00,21.0,11.0,-100.00,NNW,330,0.0,2.0,65,0.00,,,0.00,0.000000,,2013-03-08 03:12:00,
2013-03-07 20:22:00,21.0,11.0,-100.00,NNW,330,0.0,2.0,65,0.00,,,0.00,0.000000,,2013-03-08 03:22:00,
2013-03-07 20:32:00,21.0,11.0,-100.00,NNW,330,0.0,2.0,65,0.00,,,0.00,0.000000,,2013-03-08 03:32:00,
2013-03-07 20:42:00,21.0,11.0,-100.00,NNW,330,0.0,2.0,65,0.00,,,0.00,0.000000,,2013-03-08 03:42:00,
2013-03-07 20:52:00,19.0,8.0,-100.00,SSW,205,2.0,4.0,62,0.00,,,0.00,0.000000,,2013-03-08 03:52:00,
2013-03-07 21:22:00,19.0,8.0,-100.00,SSW,205,2.0,4.0,62,0.00,,,0.00,0.000000,,2013-03-08 04:22:00,
2013-03-07 21:32:00,19.0,8.0,-100.00,SSW,205,2.0,4.0,62,0.00,,,0.00,0.000000,,2013-03-08 04:32:00,
2013-03-07 21:42:00,19.0,8.0,-100.00,SSW,205,2.0,4.0,62,0.00,,,0.00,0.000000,,2013-03-08 04:42:00,
2013-03-07 21:52:00,26.0,4.0,-100.00,SSE,158,2.0,6.0,39,0.00,,,0.00,0.000000,,2013-03-08 04:52:00,
2013-03-07 22:12:00,26.0,4.0,-100.00,SSE,158,2.0,6.0,39,0.00,,,0.00,0.000000,,2013-03-08 05:12:00,
2013-03-07 22:22:00,26.0,4.0,-100.00,SSE,158,2.0,6.0,39,0.00,,,0.00,0.000000,,2013-03-08 05:22:00,
2013-03-07 22:32:00,26.0,4.0,-100.00,SSE,158,2.0,6.0,39,0.00,,,0.00,0.000000,,2013-03-08 05:32:00,
2013-03-07 22:42:00,26.0,4.0,-100.00,SSE,158,2.0,6.0,39,0.00,,,0.00,0.000000,,2013-03-08 05:42:00,
2013-03-07 23:11:00,13.0,5.0,-100.00,WNW,289,2.0,4.0,70,0.00,,,0.00,0.000000,,2013-03-08 06:11:00,
2013-03-07 23:22:00,13.0,5.0,-100.00,WNW,289,2.0,4.0,70,0.00,,,0.00,0.000000,,2013-03-08 06:22:00,
2013-03-07 23:32:00,13.0,5.0,-100.00,WNW,289,2.0,4.0,70,0.00,,,0.00,0.000000,,2013-03-08 06:32:00,
2013-03-07 23:42:00,13.0,5.0,-100.00,WNW,289,2.0,4.0,70,0.00,,,0.00,0.000000,,2013-03-08 06:42:00,
2013-03-07 23:51:00,13.0,5.0,-100.00,WNW,289,2.0,4.0,70,0.00,,,0.00,0.000000,,2013-03-08 06:51:00,